Time;durP1;ratioP1;P1;durP2;ratioP2;P2;SDS_P1;SDS_P2;PMS_P1;PMS_P2;Temp;Humidity;BMP_temperature;BMP_pressure;BME280_temperature;BME280_humidity;BME280_pressure;Samples;Min_cycle;Max_cycle;Signal;HPM_P1;HPM_P2
2022/10/01 00:15:30;;;;;;;8.02;5.50;;;9.60;99.90;;;;;;6234477;22;20451;-86
2022/10/01 00:23:25;;;;;;;7.97;7.15;;;9.50;99.90;;;;;;6071096;23;20080;-86
2022/10/01 00:25:53;;;;;;;8.15;6.25;;;9.40;99.90;;;;;;5982593;23;20340;-85
2022/10/01 00:29:01;;;;;;;;;;;;;;;;;;;;;
2022/10/01 00:49:39;;;;;;;;;;;;;;;;;;;;;
2022/10/01 00:54:10;;;;;;;9.82;7.25;;;9.30;99.90;;;;;;6081513;23;20030;-86
2022/10/01 01:01:43;;;;;;;8.27;7.20;;;9.30;99.90;;;;;;5820162;24;20038;-86
2022/10/01 01:05:56;;;;;;;;;;;;;;;;;;;;;
2022/10/01 01:10:43;;;;;;;8.93;7.15;;;9.50;99.90;;;;;;5835532;24;20367;-86
2022/10/01 01:14:54;;;;;;;9.27;7.38;;;9.50;99.90;;;;;;5998854;23;20760;-86
2022/10/01 01:23:15;;;;;;;8.40;5.88;;;9.70;99.90;;;;;;6122161;23;20025;-86
2022/10/01 01:31:52;;;;;;;9.98;7.15;;;9.60;99.90;;;;;;6016872;23;20030;-87
2022/10/01 01:38:39;;;;;;;8.13;7.32;;;9.60;99.90;;;;;;5862257;24;20022;-86
2022/10/01 01:41:54;;;;;;;10.13;6.82;;;9.70;99.90;;;;;;5829109;24;20021;-86
2022/10/01 01:45:00;;;;;;;;;;;;;;;;;;;;;
2022/10/01 01:48:07;;;;;;;;;;;;;;;;;;;;;
2022/10/01 02:06:24;;;;;;;7.68;6.43;;;9.20;99.90;;;;;;5912699;24;20029;-86
2022/10/01 02:10:09;;;;;;;6.50;5.85;;;9.20;99.90;;;;;;5834700;24;20034;-82
2022/10/01 02:13:25;;;;;;;7.65;6.85;;;9.20;99.90;;;;;;5875081;24;20070;-82
2022/10/01 02:16:45;;;;;;;;;;;;;;;;;;;;;
2022/10/01 02:21:16;;;;;;;6.57;5.97;;;9.20;99.90;;;;;;6074246;23;20067;-88
2022/10/01 02:25:46;;;;;;;;;;;;;;;;;;;;;
2022/10/01 03:27:02;;;;;;;7.20;6.55;;;7.90;99.90;;;;;;6104615;23;20029;-83
2022/10/01 03:31:41;;;;;;;;;;;;;;;;;;;;;
2022/10/01 03:35:53;;;;;;;5.32;4.38;;;7.60;99.90;;;;;;6035299;23;20003;-83
2022/10/01 03:39:21;;;;;;;6.25;5.55;;;7.20;99.90;;;;;;5990433;23;20030;-88
2022/10/01 03:42:01;;;;;;;5.97;5.47;;;7.10;99.90;;;;;;6001478;23;20035;-88
2022/10/01 03:44:51;;;;;;;7.72;5.90;;;7.20;99.90;;;;;;6027583;23;20021;-88
2022/10/01 03:47:50;;;;;;;7.20;6.55;;;7.30;99.90;;;;;;6099541;23;20077;-88
2022/10/01 03:51:06;;;;;;;7.68;6.07;;;7.30;99.90;;;;;;6045649;23;20459;-88
2022/10/01 03:54:10;;;;;;;5.30;3.38;;;7.40;99.90;;;;;;6054092;23;20031;-88
2022/10/01 03:56:47;;;;;;;5.95;5.38;;;7.30;99.90;;;;;;6075700;23;20025;-87
2022/10/01 03:59:26;;;;;;;23.70;7.35;;;7.10;99.90;;;;;;6076065;23;20026;-87
2022/10/01 04:02:01;;;;;;;25.77;9.48;;;6.80;99.90;;;;;;6108074;23;20017;-87
2022/10/01 04:04:38;;;;;;;14.50;6.10;;;6.60;99.90;;;;;;6132630;23;20021;-87
2022/10/01 04:07:17;;;;;;;5.28;4.65;;;6.60;99.90;;;;;;6114729;23;20025;-87
2022/10/01 04:09:45;;;;;;;6.22;4.90;;;6.80;99.90;;;;;;6147736;23;20013;-88
2022/10/01 04:12:14;;;;;;;5.75;4.60;;;6.70;99.90;;;;;;6132765;23;20109;-90
2022/10/01 04:14:42;;;;;;;6.63;6.03;;;6.70;99.90;;;;;;6131327;23;20033;-90
2022/10/01 04:17:10;;;;;;;6.00;5.18;;;6.70;99.90;;;;;;6132763;23;20017;-90
2022/10/01 04:19:37;;;;;;;6.72;6.13;;;6.70;99.90;;;;;;6131417;23;20017;-89
2022/10/01 04:22:05;;;;;;;7.97;6.05;;;6.70;99.90;;;;;;6182795;23;20036;-90
2022/10/01 04:24:32;;;;;;;5.85;5.07;;;6.70;99.90;;;;;;6182909;23;20021;-90
2022/10/01 04:27:00;;;;;;;32.97;8.88;;;6.70;99.90;;;;;;6235165;22;20749;-90
2022/10/01 04:29:28;;;;;;;7.60;5.43;;;6.60;99.90;;;;;;6228479;23;20008;-90
2022/10/01 04:31:57;;;;;;;78.15;14.10;;;6.30;99.90;;;;;;6218384;23;20031;-91
2022/10/01 04:34:51;;;;;;;10.18;4.65;;;6.20;99.90;;;;;;6191648;23;20020;-90
2022/10/01 04:37:12;;;;;;;28.23;11.32;;;6.20;99.90;;;;;;6192738;23;20035;-91
2022/10/01 04:39:41;;;;;;;16.25;6.90;;;6.30;99.90;;;;;;6192648;23;20647;-90
2022/10/01 04:42:08;;;;;;;8.15;4.57;;;6.30;99.90;;;;;;6217232;23;20020;-91
2022/10/01 04:44:36;;;;;;;6.00;5.35;;;6.20;99.90;;;;;;6193319;23;20016;-91
2022/10/01 04:47:03;;;;;;;5.53;5.03;;;6.20;99.90;;;;;;6192830;23;20023;-90
2022/10/01 04:49:32;;;;;;;20.58;6.40;;;6.30;99.90;;;;;;6169699;23;20020;-91
2022/10/01 04:52:37;;;;;;;10.52;7.15;;;6.20;99.90;;;;;;6192324;23;20031;-90
2022/10/01 04:55:05;;;;;;;10.93;6.07;;;6.20;99.90;;;;;;6218028;23;20479;-90
2022/10/01 04:57:35;;;;;;;6.78;6.13;;;6.30;99.90;;;;;;6192237;22;20035;-90
2022/10/01 05:00:05;;;;;;;8.32;7.50;;;6.40;99.90;;;;;;6228766;23;20013;-91
2022/10/01 05:02:33;;;;;;;7.72;6.88;;;6.40;99.90;;;;;;6217609;23;20020;-90
2022/10/01 05:05:02;;;;;;;6.70;5.97;;;6.50;99.90;;;;;;6218339;23;20020;-88
2022/10/01 05:07:31;;;;;;;21.90;7.80;;;6.40;99.90;;;;;;6192592;23;20020;-90
2022/10/01 05:09:59;;;;;;;6.57;5.97;;;6.20;99.90;;;;;;6226547;23;20012;-90
2022/10/01 05:12:27;;;;;;;9.38;6.07;;;6.00;99.90;;;;;;6195510;23;20019;-91
2022/10/01 05:14:55;;;;;;;7.97;6.45;;;6.10;99.90;;;;;;6219351;23;20028;-86
2022/10/01 05:17:23;;;;;;;9.93;7.13;;;6.30;99.90;;;;;;6220024;23;20324;-85
2022/10/01 05:19:51;;;;;;;7.18;6.05;;;6.40;99.90;;;;;;6219791;23;20028;-86
2022/10/01 05:22:22;;;;;;;10.25;7.70;;;6.50;99.90;;;;;;6244723;22;20024;-86
2022/10/01 05:24:53;;;;;;;7.65;5.70;;;6.60;99.90;;;;;;6194232;23;20024;-85
2022/10/01 05:28:03;;;;;;;11.68;5.25;;;6.70;99.90;;;;;;6213714;23;20047;-84
2022/10/01 05:30:47;;;;;;;7.15;5.90;;;6.90;99.90;;;;;;6209199;23;20023;-86
2022/10/01 05:33:15;;;;;;;6.25;4.85;;;6.90;99.90;;;;;;6239171;23;20347;-83
2022/10/01 05:35:43;;;;;;;8.32;6.57;;;6.80;99.90;;;;;;6239064;22;20485;-85
2022/10/01 05:38:10;;;;;;;6.30;5.68;;;6.80;99.90;;;;;;6195583;23;20024;-84
2022/10/01 05:40:38;;;;;;;8.57;6.07;;;6.80;99.90;;;;;;6225203;23;20021;-85
2022/10/01 05:43:05;;;;;;;6.97;5.07;;;6.90;99.90;;;;;;6164146;23;20021;-86
2022/10/01 05:45:32;;;;;;;4.78;4.38;;;6.90;99.90;;;;;;6164885;23;20327;-85
2022/10/01 05:48:03;;;;;;;4.90;4.40;;;6.80;99.90;;;;;;6238820;23;20027;-86
2022/10/01 05:50:39;;;;;;;7.63;5.65;;;6.70;99.90;;;;;;6185877;23;20444;-85
2022/10/01 05:53:14;;;;;;;7.18;6.47;;;6.70;99.90;;;;;;6224448;23;20012;-85
2022/10/01 05:55:42;;;;;;;6.25;4.97;;;6.80;99.90;;;;;;6214015;23;20016;-85
2022/10/01 05:58:12;;;;;;;8.27;6.70;;;7.00;99.90;;;;;;6211583;22;20020;-85
2022/10/01 06:00:40;;;;;;;8.10;6.38;;;7.10;99.90;;;;;;6164631;23;20569;-85
2022/10/01 06:03:11;;;;;;;5.30;4.53;;;7.20;99.90;;;;;;6218183;23;20031;-85
2022/10/01 06:05:39;;;;;;;8.32;6.82;;;7.30;99.90;;;;;;6188716;23;20021;-85
2022/10/01 06:08:08;;;;;;;6.32;5.70;;;7.40;99.90;;;;;;6198854;23;20020;-85
2022/10/01 06:10:36;;;;;;;7.53;5.97;;;7.60;99.90;;;;;;6163988;23;20020;-87
2022/10/01 06:13:04;;;;;;;8.65;6.43;;;7.70;99.90;;;;;;6164732;23;20024;-87
2022/10/01 06:15:36;;;;;;;6.50;5.90;;;7.80;99.90;;;;;;6188696;23;20064;-85
2022/10/01 06:18:06;;;;;;;8.95;5.57;;;7.90;99.90;;;;;;6188477;23;20055;-85
2022/10/01 06:20:33;;;;;;;6.68;5.75;;;8.00;99.90;;;;;;6166090;23;20021;-85
2022/10/01 06:23:04;;;;;;;8.73;6.18;;;8.00;99.90;;;;;;6194376;23;20028;-85
2022/10/01 06:25:57;;;;;;;5.82;5.22;;;8.10;99.90;;;;;;6165930;23;20035;-88
2022/10/01 06:28:40;;;;;;;8.38;6.38;;;8.20;99.90;;;;;;6238436;23;20021;-88
2022/10/01 06:31:25;;;;;;;5.40;4.50;;;8.30;99.90;;;;;;6191022;23;20020;-89
2022/10/01 06:34:03;;;;;;;8.35;6.47;;;8.40;99.90;;;;;;6161270;22;20026;-89
2022/10/01 06:37:00;;;;;;;6.63;5.97;;;8.50;99.90;;;;;;6206851;23;20012;-90
2022/10/01 06:39:45;;;;;;;7.90;4.40;;;8.60;99.90;;;;;;6164578;23;20447;-88
2022/10/01 06:42:22;;;;;;;5.03;4.25;;;8.70;99.90;;;;;;6187942;23;20080;-89
2022/10/01 06:45:39;;;;;;;7.43;5.80;;;8.80;99.90;;;;;;6193714;23;20016;-89
2022/10/01 06:49:29;;;;;;;;;;;;;;;;;;;;;
2022/10/01 07:13:35;;;;;;;6.30;5.03;;;10.20;99.90;;;;;;6171171;23;20066;-89
2022/10/01 07:24:45;;;;;;;6.40;4.00;;;10.20;99.90;;;;;;6136940;23;20029;-88
2022/10/01 07:27:20;;;;;;;3.85;3.33;;;10.30;99.90;;;;;;6142123;23;20032;-89
2022/10/01 07:29:49;;;;;;;6.43;5.10;;;10.30;99.90;;;;;;6132141;23;20031;-88
2022/10/01 07:32:16;;;;;;;5.72;4.13;;;10.30;99.90;;;;;;6131649;23;20021;-84
2022/10/01 07:34:46;;;;;;;5.07;4.05;;;10.30;99.90;;;;;;6157426;23;20026;-88
2022/10/01 07:37:15;;;;;;;3.92;3.53;;;10.30;99.90;;;;;;6109363;23;20341;-88
2022/10/01 07:39:42;;;;;;;4.50;4.10;;;10.40;99.90;;;;;;6134119;23;20028;-87
2022/10/01 07:42:10;;;;;;;3.85;2.92;;;10.40;99.90;;;;;;6139892;23;20024;-86
2022/10/01 07:44:37;;;;;;;4.20;3.42;;;10.40;99.90;;;;;;6160385;23;20348;-89
2022/10/01 07:47:05;;;;;;;4.43;3.15;;;10.50;99.90;;;;;;6108363;23;20021;-87
2022/10/01 07:49:34;;;;;;;4.03;3.63;;;10.60;99.90;;;;;;6108096;23;20048;-86
2022/10/01 07:52:35;;;;;;;3.22;2.92;;;10.70;99.90;;;;;;6103397;23;20032;-90
2022/10/01 07:55:29;;;;;;;8.52;3.45;;;10.90;99.90;;;;;;6055032;23;20027;-88
2022/10/01 07:58:25;;;;;;;2.90;2.60;;;11.00;99.90;;;;;;5953674;23;20031;-87
2022/10/01 08:05:45;;;;;;;4.13;2.80;;;11.00;99.90;;;;;;6024675;23;20034;-89
2022/10/01 08:08:31;;;;;;;4.55;3.88;;;11.10;99.90;;;;;;5991464;23;20613;-88
2022/10/01 08:11:13;;;;;;;3.60;2.25;;;11.20;99.90;;;;;;6126964;23;20357;-89
2022/10/01 08:14:00;;;;;;;2.95;2.72;;;11.40;99.90;;;;;;6080318;23;20029;-87
2022/10/01 08:17:32;;;;;;;2.20;1.98;;;11.40;99.90;;;;;;6122554;23;20485;-89
2022/10/01 08:20:24;;;;;;;3.05;1.88;;;11.40;99.90;;;;;;6103863;23;20025;-86
2022/10/01 08:23:22;;;;;;;2.83;2.55;;;11.50;99.90;;;;;;6092673;23;20026;-88
2022/10/01 08:25:57;;;;;;;2.38;2.17;;;11.50;99.90;;;;;;6097387;23;20044;-90
2022/10/01 08:28:42;;;;;;;1.85;1.75;;;11.60;99.90;;;;;;6124050;23;20032;-90
2022/10/01 08:31:13;;;;;;;1.85;1.60;;;11.50;99.90;;;;;;6151791;23;20038;-90
2022/10/01 08:33:45;;;;;;;1.77;1.67;;;11.60;99.90;;;;;;6152677;23;20021;-88
2022/10/01 08:36:30;;;;;;;1.70;1.60;;;11.60;99.90;;;;;;6128918;23;20013;-88
2022/10/01 08:39:14;;;;;;;;;;;;;;;;;;;;;
2022/10/01 08:42:24;;;;;;;1.65;1.52;;;11.70;99.90;;;;;;6184849;23;20037;-89
2022/10/01 08:44:54;;;;;;;3.65;1.50;;;11.70;99.90;;;;;;6150974;23;20022;-90
2022/10/01 08:48:08;;;;;;;1.65;1.30;;;11.80;99.90;;;;;;6164566;23;20020;-92
2022/10/01 08:51:08;;;;;;;1.27;1.17;;;11.90;99.90;;;;;;6144938;23;20032;-90
2022/10/01 08:54:05;;;;;;;2.30;1.67;;;12.00;99.90;;;;;;6161494;23;20024;-91
2022/10/01 08:56:45;;;;;;;1.45;1.35;;;12.00;99.90;;;;;;6112280;23;20022;-89
2022/10/01 08:59:46;;;;;;;0.95;0.85;;;12.00;99.90;;;;;;6089064;23;20033;-90
2022/10/01 09:06:55;;;;;;;2.33;1.08;;;12.00;99.90;;;;;;6031937;23;20019;-91
2022/10/01 09:14:10;;;;;;;1.70;1.38;;;11.90;99.90;;;;;;6083998;23;20022;-92
2022/10/01 09:17:25;;;;;;;1.63;1.42;;;11.90;99.90;;;;;;6044027;23;20041;-87
2022/10/01 09:20:34;;;;;;;2.00;1.52;;;12.00;99.90;;;;;;6067750;23;20026;-88
2022/10/01 09:23:49;;;;;;;1.27;1.17;;;12.00;99.90;;;;;;6072014;23;20457;-86
2022/10/01 09:26:31;;;;;;;1.52;1.42;;;12.10;99.90;;;;;;6129435;23;20029;-88
2022/10/01 09:29:17;;;;;;;1.95;1.85;;;12.10;99.90;;;;;;6129814;23;20032;-88
2022/10/01 09:36:13;;;;;;;1.40;1.30;;;12.20;99.90;;;;;;6178010;23;20072;-87
2022/10/01 09:39:01;;;;;;;1.63;1.50;;;12.20;99.90;;;;;;6142729;23;20018;-88
2022/10/01 10:56:59;;;;;;;2.58;1.88;;;12.10;99.90;;;;;;6212460;23;20718;-87
2022/10/01 10:59:28;;;;;;;;;;;12.00;99.90;;;;;;6164424;23;20021;-86
2022/10/01 11:01:56;;;;;;;3.40;2.58;;;11.90;99.90;;;;;;6188796;23;19916;-86
2022/10/01 11:04:44;;;;;;;3.25;2.95;;;11.90;99.90;;;;;;6140254;23;20017;-86
2022/10/01 11:07:19;;;;;;;2.75;2.55;;;12.00;99.90;;;;;;6167156;23;20344;-87
2022/10/01 11:10:26;;;;;;;5.35;2.80;;;11.80;99.90;;;;;;6173491;23;20017;-87
2022/10/01 11:13:16;;;;;;;1.70;1.60;;;11.90;99.90;;;;;;6189283;23;20017;-87
2022/10/01 11:15:55;;;;;;;1.48;1.38;;;11.70;99.90;;;;;;6189619;23;20024;-86
2022/10/01 11:19:04;;;;;;;0.90;0.90;;;11.60;99.90;;;;;;6170132;23;20025;-86
2022/10/01 11:21:56;;;;;;;3.22;3.03;;;11.50;99.90;;;;;;6138823;23;20031;-87
2022/10/01 11:24:59;;;;;;;1.20;1.10;;;11.40;99.90;;;;;;6140350;23;20024;-86
2022/10/01 11:27:46;;;;;;;1.30;0.95;;;11.10;99.90;;;;;;6138612;23;20108;-87
2022/10/01 11:30:43;;;;;;;1.00;0.77;;;10.90;99.90;;;;;;6162940;23;20065;-87
2022/10/01 11:33:31;;;;;;;2.83;2.15;;;10.90;99.90;;;;;;6149946;23;20031;-88
2022/10/01 11:36:10;;;;;;;3.97;1.15;;;10.80;99.90;;;;;;6099474;23;20036;-86
2022/10/01 11:38:44;;;;;;;1.13;0.85;;;10.60;99.90;;;;;;6218864;23;20024;-88
2022/10/01 11:41:37;;;;;;;1.20;1.17;;;10.50;99.90;;;;;;6139546;23;20035;-86
2022/10/01 11:44:15;;;;;;;1.10;1.00;;;10.40;99.90;;;;;;6212391;23;20032;-87
2022/10/01 11:46:53;;;;;;;1.20;1.20;;;10.30;99.90;;;;;;6193427;23;20085;-86
2022/10/01 11:49:42;;;;;;;1.33;1.23;;;10.30;99.90;;;;;;6200149;23;20020;-88
2022/10/01 11:52:45;;;;;;;3.33;1.10;;;10.30;99.90;;;;;;6114346;23;20024;-86
2022/10/01 11:58:53;;;;;;;0.98;0.98;;;10.20;99.90;;;;;;6187419;23;20447;-87
2022/10/01 12:01:39;;;;;;;1.20;1.10;;;10.20;99.90;;;;;;6224186;23;20013;-86
2022/10/01 12:04:24;;;;;;;1.63;1.52;;;10.20;99.90;;;;;;6065034;23;20585;-87
2022/10/01 12:06:52;;;;;;;2.45;2.20;;;10.20;99.90;;;;;;6125705;23;20037;-86
2022/10/01 12:09:46;;;;;;;1.58;1.27;;;10.10;99.90;;;;;;6153045;23;20025;-87
2022/10/01 12:12:24;;;;;;;1.67;1.40;;;10.10;99.90;;;;;;6082761;23;20033;-86
2022/10/01 12:15:11;;;;;;;1.92;1.20;;;10.10;99.90;;;;;;6151979;23;20045;-86
2022/10/01 12:18:00;;;;;;;1.83;1.38;;;10.00;99.90;;;;;;6146625;23;20033;-87
2022/10/01 12:20:30;;;;;;;3.35;1.55;;;10.00;99.90;;;;;;6123790;23;20385;-86
2022/10/01 12:23:24;;;;;;;1.60;1.50;;;10.00;99.90;;;;;;6098014;23;20026;-86
2022/10/01 12:26:17;;;;;;;1.30;1.20;;;10.00;99.90;;;;;;6096629;23;20026;-87
2022/10/01 12:29:35;;;;;;;2.15;1.45;;;9.90;99.90;;;;;;6099395;23;20434;-88
2022/10/01 12:32:20;;;;;;;1.75;1.65;;;9.90;99.90;;;;;;6092154;23;20026;-88
2022/10/01 12:35:01;;;;;;;1.77;1.67;;;9.90;99.90;;;;;;6088107;23;20029;-87
2022/10/01 12:38:17;;;;;;;2.35;1.30;;;9.90;99.90;;;;;;6117582;23;20461;-88
2022/10/01 12:41:19;;;;;;;1.38;1.27;;;9.80;99.90;;;;;;6152352;23;20029;-87
2022/10/01 12:44:09;;;;;;;1.40;1.30;;;9.80;99.90;;;;;;6065375;23;20033;-88
2022/10/01 12:47:24;;;;;;;1.30;1.20;;;9.80;99.90;;;;;;6103266;23;20032;-88
2022/10/01 12:50:15;;;;;;;2.05;1.50;;;9.80;99.90;;;;;;6102398;23;20160;-87
2022/10/01 12:53:09;;;;;;;3.13;1.67;;;9.80;99.90;;;;;;6214133;23;20031;-89
2022/10/01 12:55:38;;;;;;;1.42;1.35;;;9.90;99.90;;;;;;6081634;23;20805;-87
2022/10/01 12:58:43;;;;;;;1.35;1.10;;;9.90;99.90;;;;;;6140290;23;20474;-88
2022/10/01 13:01:34;;;;;;;1.40;1.27;;;9.80;99.90;;;;;;6167470;23;20428;-89
2022/10/01 13:04:49;;;;;;;1.38;1.27;;;9.80;99.90;;;;;;6163194;23;20020;-87
2022/10/01 13:07:57;;;;;;;1.58;1.48;;;9.80;99.90;;;;;;6097872;23;20029;-88
2022/10/01 13:10:52;;;;;;;1.85;1.35;;;9.80;99.90;;;;;;6164923;23;20032;-88
2022/10/01 13:13:59;;;;;;;1.23;1.13;;;9.80;99.90;;;;;;6166198;23;20017;-90
2022/10/01 13:17:28;;;;;;;;;;;;;;;;;;;;;
2022/10/01 13:22:07;;;;;;;2.38;2.17;;;9.90;99.90;;;;;;6065641;23;20038;-89
2022/10/01 13:26:37;;;;;;;2.33;2.15;;;9.90;99.90;;;;;;6070162;23;20021;-90
2022/10/01 14:44:16;;;;;;;0.80;0.80;;;10.30;99.90;;;;;;6083399;23;20021;-90
2022/10/01 14:52:49;;;;;;;1.20;1.10;;;10.40;99.90;;;;;;6187884;22;20344;-95
2022/10/01 15:04:49;;;;;;;2.63;1.15;;;10.40;99.90;;;;;;6231821;22;20063;-92
2022/10/01 15:07:27;;;;;;;1.10;1.08;;;10.40;99.90;;;;;;6222370;23;20017;-90
2022/10/01 15:10:06;;;;;;;1.08;0.98;;;10.50;99.90;;;;;;6193633;23;20023;-91
2022/10/01 15:12:39;;;;;;;1.45;1.35;;;10.50;99.90;;;;;;6193659;23;20020;-91
2022/10/01 15:15:40;;;;;;;3.33;1.83;;;10.50;99.90;;;;;;6194299;23;20343;-90
2022/10/01 15:18:13;;;;;;;0.93;0.90;;;10.50;99.90;;;;;;6094584;23;20016;-91
2022/10/01 15:21:14;;;;;;;1.00;0.95;;;10.60;99.90;;;;;;6229383;23;20012;-90
2022/10/01 15:23:46;;;;;;;1.65;1.55;;;10.60;99.90;;;;;;6218537;23;20339;-91
2022/10/01 15:26:22;;;;;;;0.90;0.90;;;10.60;99.90;;;;;;6217700;22;20023;-90
2022/10/01 15:29:04;;;;;;;1.17;1.10;;;10.60;99.90;;;;;;6218289;23;20016;-91
2022/10/01 15:31:32;;;;;;;1.38;1.27;;;10.60;99.90;;;;;;6243807;23;20016;-90
2022/10/01 15:34:13;;;;;;;;;;;;;;;;;;;;;
2022/10/01 15:36:42;;;;;;;1.52;1.30;;;10.50;99.90;;;;;;6229202;23;20024;-88
2022/10/01 15:39:31;;;;;;;1.33;0.90;;;10.60;99.90;;;;;;6218568;23;20028;-87
2022/10/01 15:42:07;;;;;;;1.15;1.05;;;10.60;99.90;;;;;;6253509;22;20031;-87
2022/10/01 15:44:47;;;;;;;1.48;1.20;;;10.60;99.90;;;;;;6194295;23;20028;-88
2022/10/01 15:47:32;;;;;;;1.05;0.95;;;10.60;99.90;;;;;;6193466;23;20039;-90
2022/10/01 15:50:09;;;;;;;1.10;1.00;;;10.60;99.90;;;;;;6192925;23;20012;-89
2022/10/01 15:52:54;;;;;;;2.78;1.33;;;10.60;99.90;;;;;;6169924;23;20020;-90
2022/10/01 15:55:25;;;;;;;3.53;0.80;;;10.60;99.90;;;;;;6219744;23;20024;-88
2022/10/01 15:58:16;;;;;;;0.90;0.80;;;10.50;99.90;;;;;;6253578;22;20012;-86
2022/10/01 16:00:47;;;;;;;;;;;10.60;99.90;;;;;;6256541;23;20528;-88
2022/10/01 16:03:32;;;;;;;1.20;1.10;;;10.50;99.90;;;;;;6169555;23;19915;-87
2022/10/01 16:06:07;;;;;;;0.90;0.90;;;10.50;99.90;;;;;;6192267;23;20343;-88
2022/10/01 16:09:10;;;;;;;1.25;1.17;;;10.50;99.90;;;;;;6221078;23;20027;-88
2022/10/01 16:11:52;;;;;;;1.45;1.35;;;10.50;99.90;;;;;;6168213;23;20013;-87
2022/10/01 16:14:35;;;;;;;0.80;0.80;;;10.50;99.90;;;;;;6168423;23;20089;-87
2022/10/01 16:17:17;;;;;;;1.63;1.17;;;10.50;99.90;;;;;;6171373;23;20027;-87
2022/10/01 16:19:48;;;;;;;0.80;0.80;;;10.60;99.90;;;;;;6168337;23;20028;-86
2022/10/01 16:22:25;;;;;;;4.13;1.25;;;10.50;99.90;;;;;;6217836;23;20027;-88
2022/10/01 16:24:54;;;;;;;1.40;0.93;;;10.60;99.90;;;;;;6203930;23;20458;-87
2022/10/01 16:27:25;;;;;;;1.38;1.02;;;10.50;99.90;;;;;;6167563;23;20016;-86
2022/10/01 16:30:00;;;;;;;1.35;1.10;;;10.50;99.90;;;;;;6193433;22;20019;-87
2022/10/01 16:32:32;;;;;;;1.10;1.00;;;10.40;99.90;;;;;;6193053;23;20022;-86
2022/10/01 16:35:18;;;;;;;1.05;1.00;;;10.40;99.90;;;;;;6247238;23;20444;-87
2022/10/01 16:37:48;;;;;;;0.90;0.90;;;10.40;99.90;;;;;;6227386;22;20012;-85
2022/10/01 16:40:17;;;;;;;1.35;1.00;;;10.40;99.90;;;;;;6229082;23;20016;-88
2022/10/01 16:42:46;;;;;;;1.23;1.13;;;10.40;99.90;;;;;;6216599;23;20039;-89
2022/10/01 16:45:16;;;;;;;1.10;1.10;;;10.40;99.90;;;;;;6228711;23;20012;-86
2022/10/01 16:47:45;;;;;;;0.95;0.88;;;10.40;99.90;;;;;;6245456;22;20321;-86
2022/10/01 16:50:14;;;;;;;1.25;1.02;;;10.50;99.90;;;;;;6252264;23;20019;-88
2022/10/01 16:52:43;;;;;;;1.00;0.90;;;10.40;99.90;;;;;;6192864;23;20016;-90
2022/10/01 16:55:21;;;;;;;1.10;1.10;;;10.50;99.90;;;;;;6247083;22;20725;-87
2022/10/01 16:57:55;;;;;;;1.20;0.80;;;10.40;99.90;;;;;;6191936;23;20495;-86
2022/10/01 17:00:25;;;;;;;1.20;1.10;;;10.50;99.90;;;;;;6229000;23;20339;-85
2022/10/01 17:02:54;;;;;;;1.35;1.25;;;10.40;99.90;;;;;;6242726;22;20035;-86
2022/10/01 17:05:25;;;;;;;1.10;1.00;;;10.50;99.90;;;;;;6219722;23;20020;-89
2022/10/01 17:08:04;;;;;;;1.27;1.17;;;10.50;99.90;;;;;;6245276;23;20027;-86
2022/10/01 17:10:35;;;;;;;1.33;1.33;;;10.50;99.90;;;;;;6198605;22;20012;-85
2022/10/01 17:13:13;;;;;;;;;;;10.50;99.90;;;;;;6220811;23;20013;-88
2022/10/01 17:15:41;;;;;;;1.23;0.90;;;10.50;99.90;;;;;;6170186;23;19924;-86
2022/10/01 17:18:08;;;;;;;0.95;0.90;;;10.60;99.90;;;;;;6194875;23;20016;-89
2022/10/01 17:20:39;;;;;;;0.80;0.70;;;10.70;99.90;;;;;;6230832;23;20019;-88
2022/10/01 17:23:09;;;;;;;2.15;1.05;;;10.60;99.90;;;;;;6248689;23;20327;-89
2022/10/01 17:25:38;;;;;;;1.20;1.10;;;10.60;99.90;;;;;;6257244;22;20016;-86
2022/10/01 17:28:10;;;;;;;0.93;0.93;;;10.60;99.90;;;;;;6230504;23;20020;-88
2022/10/01 17:30:39;;;;;;;0.70;0.70;;;10.60;99.90;;;;;;6244158;23;20455;-86
2022/10/01 17:33:09;;;;;;;2.33;0.70;;;10.60;99.90;;;;;;6195365;23;20064;-87
2022/10/01 17:38:58;;;;;;;0.65;0.65;;;10.60;99.90;;;;;;6246482;22;20027;-88
2022/10/01 17:41:26;;;;;;;0.95;0.95;;;10.60;99.90;;;;;;6256846;23;20435;-87
2022/10/01 17:43:53;;;;;;;1.33;0.90;;;10.60;99.90;;;;;;6245255;23;20068;-88
2022/10/01 17:46:21;;;;;;;1.38;0.88;;;10.60;99.90;;;;;;6238156;22;20618;-88
2022/10/01 17:48:49;;;;;;;1.38;1.10;;;10.70;99.90;;;;;;6231072;23;20012;-89
2022/10/01 17:51:17;;;;;;;1.00;1.00;;;10.70;99.90;;;;;;6219073;23;20678;-88
2022/10/01 17:53:53;;;;;;;1.40;0.57;;;10.80;99.90;;;;;;6194973;22;20024;-89
2022/10/01 17:56:22;;;;;;;1.00;1.00;;;10.80;99.90;;;;;;6195268;23;20027;-89
2022/10/01 17:58:52;;;;;;;1.20;1.10;;;10.80;99.90;;;;;;6223281;23;20020;-89
2022/10/01 18:01:38;;;;;;;2.35;1.25;;;10.90;99.90;;;;;;6220621;23;20016;-89
2022/10/01 18:04:21;;;;;;;0.80;0.80;;;10.90;99.90;;;;;;6185664;23;20050;-89
2022/10/01 18:07:28;;;;;;;1.45;0.90;;;10.90;99.90;;;;;;6250152;23;20020;-89
2022/10/01 18:09:56;;;;;;;0.70;0.70;;;11.00;99.90;;;;;;6228951;22;20016;-89
2022/10/01 18:12:24;;;;;;;3.42;0.95;;;10.90;99.90;;;;;;6219813;23;20451;-90
2022/10/01 18:14:52;;;;;;;0.88;0.88;;;10.90;99.90;;;;;;6194900;23;20016;-89
2022/10/01 18:17:20;;;;;;;0.85;0.77;;;10.90;99.90;;;;;;6255917;23;20019;-91
2022/10/01 18:19:47;;;;;;;0.80;0.80;;;10.90;99.90;;;;;;6245464;23;20024;-89
2022/10/01 18:22:23;;;;;;;1.25;1.00;;;10.90;99.90;;;;;;6219984;22;20020;-90
2022/10/01 18:24:51;;;;;;;1.65;1.13;;;11.00;99.90;;;;;;6195843;23;20027;-89
2022/10/01 18:27:18;;;;;;;0.70;0.70;;;11.00;99.90;;;;;;6216095;23;20032;-87
2022/10/01 18:29:57;;;;;;;1.13;0.70;;;11.00;99.90;;;;;;6212331;22;20015;-90
2022/10/01 18:33:11;;;;;;;1.10;1.08;;;11.00;99.90;;;;;;6195922;23;20012;-89
2022/10/01 18:35:42;;;;;;;0.82;0.82;;;11.10;99.90;;;;;;6209422;22;20328;-90
2022/10/01 18:38:57;;;;;;;1.65;1.42;;;11.10;99.90;;;;;;6250840;23;20071;-89
2022/10/01 18:41:33;;;;;;;1.05;1.05;;;11.10;99.90;;;;;;6195034;23;20012;-88
2022/10/01 18:44:16;;;;;;;0.70;0.70;;;11.20;99.90;;;;;;6219006;23;20027;-92
2022/10/01 18:46:59;;;;;;;0.90;0.77;;;11.10;99.90;;;;;;6220105;23;20020;-88
2022/10/01 18:49:58;;;;;;;0.70;0.70;;;11.10;99.90;;;;;;6220585;23;20023;-90
2022/10/01 18:53:00;;;;;;;1.13;0.80;;;11.10;99.90;;;;;;6253826;23;20020;-87
2022/10/01 18:55:47;;;;;;;0.90;0.73;;;11.10;99.90;;;;;;6219476;23;20464;-90
2022/10/01 18:59:10;;;;;;;0.60;0.60;;;11.10;99.90;;;;;;6219652;23;20089;-90
2022/10/01 19:01:51;;;;;;;0.73;0.73;;;11.10;99.90;;;;;;6219370;23;20016;-89
2022/10/01 19:04:37;;;;;;;1.65;1.13;;;11.20;99.90;;;;;;6245613;23;20019;-88
2022/10/01 19:07:30;;;;;;;1.95;0.70;;;11.20;99.90;;;;;;6248147;23;20443;-86
2022/10/01 19:11:08;;;;;;;0.90;0.90;;;11.20;99.90;;;;;;6251847;23;20016;-91
2022/10/01 19:13:50;;;;;;;3.80;0.80;;;11.30;99.90;;;;;;6249948;22;20016;-89
2022/10/01 19:16:40;;;;;;;1.73;1.63;;;11.20;99.90;;;;;;6219648;23;20016;-88
2022/10/01 19:19:29;;;;;;;1.10;1.10;;;11.20;99.90;;;;;;6249431;22;20028;-88
2022/10/01 19:22:14;;;;;;;0.60;0.60;;;11.30;99.90;;;;;;6220879;23;20023;-87
2022/10/01 19:24:54;;;;;;;0.88;0.88;;;11.30;99.90;;;;;;6219910;23;20016;-89
2022/10/01 19:27:56;;;;;;;0.60;0.60;;;11.30;99.90;;;;;;6220982;23;20535;-89
2022/10/01 19:30:25;;;;;;;0.65;0.63;;;11.30;99.90;;;;;;6225681;23;20020;-87
2022/10/01 19:33:00;;;;;;;0.80;0.80;;;11.30;99.90;;;;;;6219091;23;20455;-88
2022/10/01 19:35:34;;;;;;;0.68;0.68;;;11.30;99.90;;;;;;6193361;23;20020;-88
2022/10/01 19:38:34;;;;;;;0.65;0.65;;;11.20;99.90;;;;;;6227553;23;20023;-85
2022/10/01 19:41:13;;;;;;;4.05;1.48;;;11.30;99.90;;;;;;6243422;22;20439;-87
2022/10/01 19:43:51;;;;;;;0.60;0.60;;;11.40;99.90;;;;;;6244444;23;20075;-88
2022/10/01 19:46:28;;;;;;;0.60;0.60;;;11.40;99.90;;;;;;6250989;23;20024;-90
2022/10/01 19:49:07;;;;;;;0.57;0.57;;;11.30;99.90;;;;;;6219701;23;20020;-86
2022/10/01 19:51:39;;;;;;;0.70;0.70;;;11.40;99.90;;;;;;6243342;23;20024;-86
2022/10/01 19:54:19;;;;;;;1.02;0.80;;;11.40;99.90;;;;;;6251653;23;20024;-87
2022/10/01 19:57:00;;;;;;;1.58;1.33;;;11.30;99.90;;;;;;6194539;23;20031;-88
2022/10/01 19:59:28;;;;;;;0.60;0.60;;;11.40;99.90;;;;;;6245999;23;20035;-87
2022/10/01 20:02:02;;;;;;;0.60;0.60;;;11.40;99.90;;;;;;6218048;22;20032;-86
2022/10/01 20:04:59;;;;;;;0.70;0.70;;;11.40;99.90;;;;;;6227330;23;20027;-87
2022/10/01 20:12:35;;;;;;;0.70;0.70;;;11.30;99.90;;;;;;6242137;23;20285;-90
2022/10/01 20:15:21;;;;;;;0.95;0.80;;;11.30;99.90;;;;;;6247459;23;20024;-88
2022/10/01 20:18:13;;;;;;;0.50;0.50;;;11.30;99.90;;;;;;6252586;22;20472;-90
2022/10/01 20:20:59;;;;;;;1.17;0.68;;;11.30;99.90;;;;;;6254425;23;20019;-91
2022/10/01 20:23:54;;;;;;;0.70;0.70;;;11.20;99.90;;;;;;6220524;23;20064;-89
2022/10/01 20:27:00;;;;;;;0.50;0.50;;;11.20;99.90;;;;;;6224976;23;20720;-89
2022/10/01 20:29:54;;;;;;;6.78;1.15;;;11.20;99.90;;;;;;6218823;23;20039;-90
2022/10/01 20:32:33;;;;;;;0.85;0.85;;;11.20;99.90;;;;;;6208151;23;20051;-89
2022/10/01 20:35:29;;;;;;;0.88;0.82;;;11.20;99.90;;;;;;6218248;23;20039;-89
2022/10/01 20:38:21;;;;;;;0.60;0.55;;;11.20;99.90;;;;;;6217390;22;20454;-87
2022/10/01 20:40:58;;;;;;;0.70;0.70;;;11.20;99.90;;;;;;6217823;23;20023;-86